sensor_id;sensor_type;location;lat;lon;timestamp;P1;P2;P0
64138;PMS5003;50435;43.700;-79.318;2022-11-28T00:02:12;16;15;
64138;PMS5003;50435;43.700;-79.318;2022-11-28T00:04:40;15;14;
64138;PMS5003;50435;43.700;-79.318;2022-11-28T00:07:07;15;14;
64138;PMS5003;50435;43.700;-79.318;2022-11-28T00:09:37;14;13;
64138;PMS5003;50435;43.700;-79.318;2022-11-28T00:12:04;13;11;
64138;PMS5003;50435;43.700;-79.318;2022-11-28T00:14:32;14;13;
64138;PMS5003;50435;43.700;-79.318;2022-11-28T00:17:00;13;13;
64138;PMS5003;50435;43.700;-79.318;2022-11-28T00:19:27;12;12;
64138;PMS5003;50435;43.700;-79.318;2022-11-28T00:21:54;12;11;
64138;PMS5003;50435;43.700;-79.318;2022-11-28T00:24:22;13;13;
64138;PMS5003;50435;43.700;-79.318;2022-11-28T00:26:49;13;12;
64138;PMS5003;50435;43.700;-79.318;2022-11-28T00:29:16;14;13;
64138;PMS5003;50435;43.700;-79.318;2022-11-28T00:31:43;10;10;
64138;PMS5003;50435;43.700;-79.318;2022-11-28T00:34:11;11;10;
64138;PMS5003;50435;43.700;-79.318;2022-11-28T00:36:41;11;11;
64138;PMS5003;50435;43.700;-79.318;2022-11-28T00:39:10;14;12;
64138;PMS5003;50435;43.700;-79.318;2022-11-28T00:41:37;10;10;
64138;PMS5003;50435;43.700;-79.318;2022-11-28T00:44:05;14;12;
64138;PMS5003;50435;43.700;-79.318;2022-11-28T00:46:32;14;13;
64138;PMS5003;50435;43.700;-79.318;2022-11-28T00:49:00;10;10;
64138;PMS5003;50435;43.700;-79.318;2022-11-28T00:51:29;13;10;
64138;PMS5003;50435;43.700;-79.318;2022-11-28T00:53:59;12;12;
64138;PMS5003;50435;43.700;-79.318;2022-11-28T00:59:28;11;11;
64138;PMS5003;50435;43.700;-79.318;2022-11-28T01:01:56;13;12;
64138;PMS5003;50435;43.700;-79.318;2022-11-28T01:04:23;13;13;
64138;PMS5003;50435;43.700;-79.318;2022-11-28T01:06:50;9;9;
64138;PMS5003;50435;43.700;-79.318;2022-11-28T01:09:19;10;10;
64138;PMS5003;50435;43.700;-79.318;2022-11-28T01:11:50;11;11;
64138;PMS5003;50435;43.700;-79.318;2022-11-28T01:14:19;13;10;
64138;PMS5003;50435;43.700;-79.318;2022-11-28T01:16:51;10;10;
64138;PMS5003;50435;43.700;-79.318;2022-11-28T01:19:19;11;11;
64138;PMS5003;50435;43.700;-79.318;2022-11-28T01:21:46;15;14;
64138;PMS5003;50435;43.700;-79.318;2022-11-28T01:24:14;10;10;
64138;PMS5003;50435;43.700;-79.318;2022-11-28T01:26:42;14;12;
64138;PMS5003;50435;43.700;-79.318;2022-11-28T01:29:10;13;13;
64138;PMS5003;50435;43.700;-79.318;2022-11-28T01:31:38;12;11;
64138;PMS5003;50435;43.700;-79.318;2022-11-28T01:34:05;14;11;
64138;PMS5003;50435;43.700;-79.318;2022-11-28T01:36:33;10;9;
64138;PMS5003;50435;43.700;-79.318;2022-11-28T01:39:01;12;10;
64138;PMS5003;50435;43.700;-79.318;2022-11-28T01:41:29;11;9;
64138;PMS5003;50435;43.700;-79.318;2022-11-28T01:43:59;8;8;
64138;PMS5003;50435;43.700;-79.318;2022-11-28T01:46:30;10;10;
64138;PMS5003;50435;43.700;-79.318;2022-11-28T01:49:01;8;8;
64138;PMS5003;50435;43.700;-79.318;2022-11-28T01:51:34;6;5;
64138;PMS5003;50435;43.700;-79.318;2022-11-28T01:56:56;6;6;
64138;PMS5003;50435;43.700;-79.318;2022-11-28T01:59:28;4;4;
64138;PMS5003;50435;43.700;-79.318;2022-11-28T02:01:59;4;4;
64138;PMS5003;50435;43.700;-79.318;2022-11-28T02:04:27;7;6;
64138;PMS5003;50435;43.700;-79.318;2022-11-28T02:06:55;5;3;
64138;PMS5003;50435;43.700;-79.318;2022-11-28T02:09:22;3;3;
64138;PMS5003;50435;43.700;-79.318;2022-11-28T02:11:55;2;2;
64138;PMS5003;50435;43.700;-79.318;2022-11-28T02:14:41;3;2;
64138;PMS5003;50435;43.700;-79.318;2022-11-28T02:17:25;2;2;
64138;PMS5003;50435;43.700;-79.318;2022-11-28T02:20:12;5;3;
64138;PMS5003;50435;43.700;-79.318;2022-11-28T02:22:58;3;3;
64138;PMS5003;50435;43.700;-79.318;2022-11-28T02:25:39;4;2;
64138;PMS5003;50435;43.700;-79.318;2022-11-28T02:28:28;2;2;
64138;PMS5003;50435;43.700;-79.318;2022-11-28T02:31:17;1;1;
64138;PMS5003;50435;43.700;-79.318;2022-11-28T02:34:03;1;1;
64138;PMS5003;50435;43.700;-79.318;2022-11-28T02:36:39;2;2;
64138;PMS5003;50435;43.700;-79.318;2022-11-28T02:39:13;2;2;
64138;PMS5003;50435;43.700;-79.318;2022-11-28T02:41:51;3;2;
64138;PMS5003;50435;43.700;-79.318;2022-11-28T02:44:29;4;2;
64138;PMS5003;50435;43.700;-79.318;2022-11-28T02:47:02;1;1;
64138;PMS5003;50435;43.700;-79.318;2022-11-28T02:49:33;1;1;
64138;PMS5003;50435;43.700;-79.318;2022-11-28T02:52:08;1;1;
64138;PMS5003;50435;43.700;-79.318;2022-11-28T02:54:40;2;2;
64138;PMS5003;50435;43.700;-79.318;2022-11-28T02:57:09;1;1;
64138;PMS5003;50435;43.700;-79.318;2022-11-28T02:59:45;1;1;
64138;PMS5003;50435;43.700;-79.318;2022-11-28T03:02:16;1;1;
64138;PMS5003;50435;43.700;-79.318;2022-11-28T03:04:49;1;1;
64138;PMS5003;50435;43.700;-79.318;2022-11-28T03:07:27;2;2;
64138;PMS5003;50435;43.700;-79.318;2022-11-28T03:10:10;1;1;
64138;PMS5003;50435;43.700;-79.318;2022-11-28T03:12:50;2;2;
64138;PMS5003;50435;43.700;-79.318;2022-11-28T03:15:23;1;1;
64138;PMS5003;50435;43.700;-79.318;2022-11-28T03:18:00;1;1;
64138;PMS5003;50435;43.700;-79.318;2022-11-28T03:23:12;1;1;
64138;PMS5003;50435;43.700;-79.318;2022-11-28T03:25:46;1;1;
64138;PMS5003;50435;43.700;-79.318;2022-11-28T03:28:22;1;1;
64138;PMS5003;50435;43.700;-79.318;2022-11-28T03:30:56;1;1;
64138;PMS5003;50435;43.700;-79.318;2022-11-28T03:33:28;1;1;
64138;PMS5003;50435;43.700;-79.318;2022-11-28T03:36:01;1;1;
64138;PMS5003;50435;43.700;-79.318;2022-11-28T03:38:34;0;0;
64138;PMS5003;50435;43.700;-79.318;2022-11-28T03:41:07;2;0;
64138;PMS5003;50435;43.700;-79.318;2022-11-28T03:43:40;0;0;
64138;PMS5003;50435;43.700;-79.318;2022-11-28T03:46:12;0;0;
64138;PMS5003;50435;43.700;-79.318;2022-11-28T03:48:45;1;1;
64138;PMS5003;50435;43.700;-79.318;2022-11-28T03:51:15;1;1;
64138;PMS5003;50435;43.700;-79.318;2022-11-28T03:53:49;1;1;
64138;PMS5003;50435;43.700;-79.318;2022-11-28T03:56:19;2;2;
64138;PMS5003;50435;43.700;-79.318;2022-11-28T03:58:53;5;4;
64138;PMS5003;50435;43.700;-79.318;2022-11-28T04:01:27;1;1;
64138;PMS5003;50435;43.700;-79.318;2022-11-28T04:04:02;3;2;
64138;PMS5003;50435;43.700;-79.318;2022-11-28T04:06:43;2;2;
64138;PMS5003;50435;43.700;-79.318;2022-11-28T04:09:20;3;3;
64138;PMS5003;50435;43.700;-79.318;2022-11-28T04:11:58;4;3;
64138;PMS5003;50435;43.700;-79.318;2022-11-28T04:14:33;3;3;
64138;PMS5003;50435;43.700;-79.318;2022-11-28T04:17:07;4;3;
64138;PMS5003;50435;43.700;-79.318;2022-11-28T04:19:40;4;4;
64138;PMS5003;50435;43.700;-79.318;2022-11-28T04:22:14;7;7;
64138;PMS5003;50435;43.700;-79.318;2022-11-28T04:24:46;4;4;
64138;PMS5003;50435;43.700;-79.318;2022-11-28T04:27:18;6;5;
64138;PMS5003;50435;43.700;-79.318;2022-11-28T04:29:49;6;4;
64138;PMS5003;50435;43.700;-79.318;2022-11-28T04:32:21;5;4;
64138;PMS5003;50435;43.700;-79.318;2022-11-28T04:34:51;6;6;
64138;PMS5003;50435;43.700;-79.318;2022-11-28T04:37:22;7;5;
64138;PMS5003;50435;43.700;-79.318;2022-11-28T04:39:53;8;7;
64138;PMS5003;50435;43.700;-79.318;2022-11-28T04:42:23;9;8;
64138;PMS5003;50435;43.700;-79.318;2022-11-28T04:44:57;5;5;
64138;PMS5003;50435;43.700;-79.318;2022-11-28T04:47:29;5;5;
64138;PMS5003;50435;43.700;-79.318;2022-11-28T04:49:57;5;4;
64138;PMS5003;50435;43.700;-79.318;2022-11-28T04:52:27;7;7;
64138;PMS5003;50435;43.700;-79.318;2022-11-28T04:55:01;5;4;
64138;PMS5003;50435;43.700;-79.318;2022-11-28T04:57:35;9;9;
64138;PMS5003;50435;43.700;-79.318;2022-11-28T05:00:06;7;5;
64138;PMS5003;50435;43.700;-79.318;2022-11-28T05:02:36;5;5;
64138;PMS5003;50435;43.700;-79.318;2022-11-28T05:05:06;5;5;
64138;PMS5003;50435;43.700;-79.318;2022-11-28T05:07:35;7;5;
64138;PMS5003;50435;43.700;-79.318;2022-11-28T05:10:02;4;4;
64138;PMS5003;50435;43.700;-79.318;2022-11-28T05:12:30;4;4;
64138;PMS5003;50435;43.700;-79.318;2022-11-28T05:14:58;4;4;
64138;PMS5003;50435;43.700;-79.318;2022-11-28T05:17:25;4;4;
64138;PMS5003;50435;43.700;-79.318;2022-11-28T05:19:53;4;4;
64138;PMS5003;50435;43.700;-79.318;2022-11-28T05:22:20;3;3;
64138;PMS5003;50435;43.700;-79.318;2022-11-28T05:24:48;3;3;
64138;PMS5003;50435;43.700;-79.318;2022-11-28T05:27:16;5;4;
64138;PMS5003;50435;43.700;-79.318;2022-11-28T05:29:43;4;4;
64138;PMS5003;50435;43.700;-79.318;2022-11-28T05:32:10;5;4;
64138;PMS5003;50435;43.700;-79.318;2022-11-28T05:34:37;3;3;
64138;PMS5003;50435;43.700;-79.318;2022-11-28T05:37:04;3;3;
64138;PMS5003;50435;43.700;-79.318;2022-11-28T05:39:32;4;3;
64138;PMS5003;50435;43.700;-79.318;2022-11-28T05:42:00;5;5;
64138;PMS5003;50435;43.700;-79.318;2022-11-28T05:44:27;5;5;
64138;PMS5003;50435;43.700;-79.318;2022-11-28T05:46:54;4;4;
64138;PMS5003;50435;43.700;-79.318;2022-11-28T05:49:21;5;4;
64138;PMS5003;50435;43.700;-79.318;2022-11-28T05:51:49;3;3;
64138;PMS5003;50435;43.700;-79.318;2022-11-28T05:54:16;4;4;
64138;PMS5003;50435;43.700;-79.318;2022-11-28T05:56:43;2;2;
64138;PMS5003;50435;43.700;-79.318;2022-11-28T05:59:11;4;4;
64138;PMS5003;50435;43.700;-79.318;2022-11-28T06:01:39;5;5;
64138;PMS5003;50435;43.700;-79.318;2022-11-28T06:04:06;6;6;
64138;PMS5003;50435;43.700;-79.318;2022-11-28T06:06:34;5;5;
64138;PMS5003;50435;43.700;-79.318;2022-11-28T06:09:03;5;5;
64138;PMS5003;50435;43.700;-79.318;2022-11-28T06:11:32;4;4;
64138;PMS5003;50435;43.700;-79.318;2022-11-28T06:14:00;6;6;
64138;PMS5003;50435;43.700;-79.318;2022-11-28T06:16:29;6;5;
64138;PMS5003;50435;43.700;-79.318;2022-11-28T06:18:58;6;6;
64138;PMS5003;50435;43.700;-79.318;2022-11-28T06:21:28;9;7;
64138;PMS5003;50435;43.700;-79.318;2022-11-28T06:23:57;7;7;
64138;PMS5003;50435;43.700;-79.318;2022-11-28T06:26:25;7;7;
64138;PMS5003;50435;43.700;-79.318;2022-11-28T06:28:54;5;5;
64138;PMS5003;50435;43.700;-79.318;2022-11-28T06:31:22;9;9;
64138;PMS5003;50435;43.700;-79.318;2022-11-28T06:33:51;7;7;
64138;PMS5003;50435;43.700;-79.318;2022-11-28T06:36:18;8;8;
64138;PMS5003;50435;43.700;-79.318;2022-11-28T06:38:46;8;8;
64138;PMS5003;50435;43.700;-79.318;2022-11-28T06:41:15;8;8;
64138;PMS5003;50435;43.700;-79.318;2022-11-28T06:43:44;8;8;
64138;PMS5003;50435;43.700;-79.318;2022-11-28T06:46:11;9;8;
64138;PMS5003;50435;43.700;-79.318;2022-11-28T06:48:39;9;8;
64138;PMS5003;50435;43.700;-79.318;2022-11-28T06:51:06;7;7;
64138;PMS5003;50435;43.700;-79.318;2022-11-28T06:53:34;8;8;
64138;PMS5003;50435;43.700;-79.318;2022-11-28T06:56:03;7;6;
64138;PMS5003;50435;43.700;-79.318;2022-11-28T06:58:31;7;7;
64138;PMS5003;50435;43.700;-79.318;2022-11-28T07:01:04;5;5;
64138;PMS5003;50435;43.700;-79.318;2022-11-28T07:03:32;8;7;
64138;PMS5003;50435;43.700;-79.318;2022-11-28T07:06:00;8;5;
64138;PMS5003;50435;43.700;-79.318;2022-11-28T07:08:29;7;6;
64138;PMS5003;50435;43.700;-79.318;2022-11-28T07:10:57;6;6;
64138;PMS5003;50435;43.700;-79.318;2022-11-28T07:13:32;7;7;
64138;PMS5003;50435;43.700;-79.318;2022-11-28T07:16:00;7;6;
64138;PMS5003;50435;43.700;-79.318;2022-11-28T07:18:27;6;6;
64138;PMS5003;50435;43.700;-79.318;2022-11-28T07:20:55;7;7;
64138;PMS5003;50435;43.700;-79.318;2022-11-28T07:23:22;5;5;
64138;PMS5003;50435;43.700;-79.318;2022-11-28T07:25:49;8;7;
64138;PMS5003;50435;43.700;-79.318;2022-11-28T07:28:17;5;5;
64138;PMS5003;50435;43.700;-79.318;2022-11-28T07:30:44;6;5;
64138;PMS5003;50435;43.700;-79.318;2022-11-28T07:33:11;4;4;
64138;PMS5003;50435;43.700;-79.318;2022-11-28T07:35:38;5;5;
64138;PMS5003;50435;43.700;-79.318;2022-11-28T07:38:05;4;4;
64138;PMS5003;50435;43.700;-79.318;2022-11-28T07:40:33;5;5;
64138;PMS5003;50435;43.700;-79.318;2022-11-28T07:43:00;3;3;
64138;PMS5003;50435;43.700;-79.318;2022-11-28T07:45:27;7;7;
64138;PMS5003;50435;43.700;-79.318;2022-11-28T07:47:54;4;4;
64138;PMS5003;50435;43.700;-79.318;2022-11-28T07:50:21;4;4;
64138;PMS5003;50435;43.700;-79.318;2022-11-28T07:52:49;4;4;
64138;PMS5003;50435;43.700;-79.318;2022-11-28T07:55:16;5;5;
64138;PMS5003;50435;43.700;-79.318;2022-11-28T07:57:43;4;4;
64138;PMS5003;50435;43.700;-79.318;2022-11-28T08:00:11;3;3;
64138;PMS5003;50435;43.700;-79.318;2022-11-28T08:02:39;4;4;
64138;PMS5003;50435;43.700;-79.318;2022-11-28T08:05:07;6;3;
64138;PMS5003;50435;43.700;-79.318;2022-11-28T08:07:34;2;2;
64138;PMS5003;50435;43.700;-79.318;2022-11-28T08:10:02;2;2;
64138;PMS5003;50435;43.700;-79.318;2022-11-28T08:12:30;3;3;
64138;PMS5003;50435;43.700;-79.318;2022-11-28T08:14:58;2;2;
64138;PMS5003;50435;43.700;-79.318;2022-11-28T08:17:25;1;1;
64138;PMS5003;50435;43.700;-79.318;2022-11-28T08:19:52;2;2;
64138;PMS5003;50435;43.700;-79.318;2022-11-28T08:22:20;2;2;
64138;PMS5003;50435;43.700;-79.318;2022-11-28T08:24:47;3;3;
64138;PMS5003;50435;43.700;-79.318;2022-11-28T08:27:14;1;1;
64138;PMS5003;50435;43.700;-79.318;2022-11-28T08:29:42;2;2;
64138;PMS5003;50435;43.700;-79.318;2022-11-28T08:32:09;1;1;
64138;PMS5003;50435;43.700;-79.318;2022-11-28T08:34:36;0;0;
64138;PMS5003;50435;43.700;-79.318;2022-11-28T08:37:03;0;0;
64138;PMS5003;50435;43.700;-79.318;2022-11-28T08:39:30;1;1;
64138;PMS5003;50435;43.700;-79.318;2022-11-28T08:41:58;1;0;
64138;PMS5003;50435;43.700;-79.318;2022-11-28T08:44:25;0;0;
64138;PMS5003;50435;43.700;-79.318;2022-11-28T08:46:54;0;0;
64138;PMS5003;50435;43.700;-79.318;2022-11-28T08:49:21;0;0;
64138;PMS5003;50435;43.700;-79.318;2022-11-28T08:51:49;0;0;
64138;PMS5003;50435;43.700;-79.318;2022-11-28T08:54:16;0;0;
64138;PMS5003;50435;43.700;-79.318;2022-11-28T08:56:43;0;0;
64138;PMS5003;50435;43.700;-79.318;2022-11-28T08:59:13;0;0;
64138;PMS5003;50435;43.700;-79.318;2022-11-28T09:01:40;0;0;
64138;PMS5003;50435;43.700;-79.318;2022-11-28T09:04:07;0;0;
64138;PMS5003;50435;43.700;-79.318;2022-11-28T09:06:37;0;0;
64138;PMS5003;50435;43.700;-79.318;2022-11-28T09:09:04;1;1;
64138;PMS5003;50435;43.700;-79.318;2022-11-28T09:11:32;0;0;
64138;PMS5003;50435;43.700;-79.318;2022-11-28T09:13:59;0;0;
64138;PMS5003;50435;43.700;-79.318;2022-11-28T09:16:26;0;0;
64138;PMS5003;50435;43.700;-79.318;2022-11-28T09:18:53;0;0;
64138;PMS5003;50435;43.700;-79.318;2022-11-28T09:21:21;0;0;
64138;PMS5003;50435;43.700;-79.318;2022-11-28T09:23:50;0;0;
64138;PMS5003;50435;43.700;-79.318;2022-11-28T09:26:22;0;0;
64138;PMS5003;50435;43.700;-79.318;2022-11-28T09:28:51;0;0;
64138;PMS5003;50435;43.700;-79.318;2022-11-28T09:31:19;0;0;
64138;PMS5003;50435;43.700;-79.318;2022-11-28T09:33:47;0;0;
64138;PMS5003;50435;43.700;-79.318;2022-11-28T09:36:15;0;0;
64138;PMS5003;50435;43.700;-79.318;2022-11-28T09:38:44;0;0;
64138;PMS5003;50435;43.700;-79.318;2022-11-28T09:41:22;0;0;
64138;PMS5003;50435;43.700;-79.318;2022-11-28T09:44:00;0;0;
64138;PMS5003;50435;43.700;-79.318;2022-11-28T09:46:34;0;0;
64138;PMS5003;50435;43.700;-79.318;2022-11-28T09:49:08;0;0;
64138;PMS5003;50435;43.700;-79.318;2022-11-28T09:51:48;0;0;
64138;PMS5003;50435;43.700;-79.318;2022-11-28T09:54:20;0;0;
64138;PMS5003;50435;43.700;-79.318;2022-11-28T09:56:57;0;0;
64138;PMS5003;50435;43.700;-79.318;2022-11-28T09:59:26;0;0;
64138;PMS5003;50435;43.700;-79.318;2022-11-28T10:01:57;0;0;
64138;PMS5003;50435;43.700;-79.318;2022-11-28T10:04:32;0;0;
64138;PMS5003;50435;43.700;-79.318;2022-11-28T10:07:09;0;0;
64138;PMS5003;50435;43.700;-79.318;2022-11-28T10:09:47;0;0;
64138;PMS5003;50435;43.700;-79.318;2022-11-28T10:12:25;1;0;
64138;PMS5003;50435;43.700;-79.318;2022-11-28T10:15:07;0;0;
64138;PMS5003;50435;43.700;-79.318;2022-11-28T10:18:02;0;0;
64138;PMS5003;50435;43.700;-79.318;2022-11-28T10:20:41;0;0;
64138;PMS5003;50435;43.700;-79.318;2022-11-28T10:23:12;0;0;
64138;PMS5003;50435;43.700;-79.318;2022-11-28T10:25:46;0;0;
64138;PMS5003;50435;43.700;-79.318;2022-11-28T10:28:18;0;0;
64138;PMS5003;50435;43.700;-79.318;2022-11-28T10:30:52;1;0;
64138;PMS5003;50435;43.700;-79.318;2022-11-28T10:33:26;0;0;
64138;PMS5003;50435;43.700;-79.318;2022-11-28T10:35:58;0;0;
64138;PMS5003;50435;43.700;-79.318;2022-11-28T10:38:28;0;0;
64138;PMS5003;50435;43.700;-79.318;2022-11-28T10:40:59;0;0;
64138;PMS5003;50435;43.700;-79.318;2022-11-28T10:43:35;0;0;
64138;PMS5003;50435;43.700;-79.318;2022-11-28T10:46:14;0;0;
64138;PMS5003;50435;43.700;-79.318;2022-11-28T10:48:56;0;0;
64138;PMS5003;50435;43.700;-79.318;2022-11-28T10:51:33;0;0;
64138;PMS5003;50435;43.700;-79.318;2022-11-28T10:54:17;0;0;
64138;PMS5003;50435;43.700;-79.318;2022-11-28T10:56:54;0;0;
64138;PMS5003;50435;43.700;-79.318;2022-11-28T10:59:31;0;0;
64138;PMS5003;50435;43.700;-79.318;2022-11-28T11:02:17;0;0;
64138;PMS5003;50435;43.700;-79.318;2022-11-28T11:04:47;0;0;
64138;PMS5003;50435;43.700;-79.318;2022-11-28T11:07:16;0;0;
64138;PMS5003;50435;43.700;-79.318;2022-11-28T11:09:48;0;0;
64138;PMS5003;50435;43.700;-79.318;2022-11-28T11:12:19;0;0;
64138;PMS5003;50435;43.700;-79.318;2022-11-28T11:14:49;0;0;
64138;PMS5003;50435;43.700;-79.318;2022-11-28T11:17:23;0;0;
64138;PMS5003;50435;43.700;-79.318;2022-11-28T11:19:53;0;0;
64138;PMS5003;50435;43.700;-79.318;2022-11-28T11:22:21;0;0;
64138;PMS5003;50435;43.700;-79.318;2022-11-28T11:25:09;0;0;
64138;PMS5003;50435;43.700;-79.318;2022-11-28T11:27:46;0;0;
64138;PMS5003;50435;43.700;-79.318;2022-11-28T11:30:15;0;0;
64138;PMS5003;50435;43.700;-79.318;2022-11-28T11:32:48;0;0;
64138;PMS5003;50435;43.700;-79.318;2022-11-28T11:35:16;0;0;
64138;PMS5003;50435;43.700;-79.318;2022-11-28T11:37:47;0;0;
64138;PMS5003;50435;43.700;-79.318;2022-11-28T11:40:17;0;0;
64138;PMS5003;50435;43.700;-79.318;2022-11-28T11:42:52;0;0;
64138;PMS5003;50435;43.700;-79.318;2022-11-28T11:45:23;0;0;
64138;PMS5003;50435;43.700;-79.318;2022-11-28T11:47:54;0;0;
64138;PMS5003;50435;43.700;-79.318;2022-11-28T11:50:23;0;0;
64138;PMS5003;50435;43.700;-79.318;2022-11-28T11:53:11;0;0;
64138;PMS5003;50435;43.700;-79.318;2022-11-28T11:55:43;0;0;
64138;PMS5003;50435;43.700;-79.318;2022-11-28T11:58:14;0;0;
64138;PMS5003;50435;43.700;-79.318;2022-11-28T12:00:46;0;0;
64138;PMS5003;50435;43.700;-79.318;2022-11-28T12:03:17;1;1;
64138;PMS5003;50435;43.700;-79.318;2022-11-28T12:05:51;0;0;
64138;PMS5003;50435;43.700;-79.318;2022-11-28T12:08:24;0;0;
64138;PMS5003;50435;43.700;-79.318;2022-11-28T12:11:03;0;0;
64138;PMS5003;50435;43.700;-79.318;2022-11-28T12:13:36;1;1;
64138;PMS5003;50435;43.700;-79.318;2022-11-28T12:16:04;0;0;
64138;PMS5003;50435;43.700;-79.318;2022-11-28T12:18:49;2;1;
64138;PMS5003;50435;43.700;-79.318;2022-11-28T12:21:25;0;0;
64138;PMS5003;50435;43.700;-79.318;2022-11-28T12:24:03;1;1;
64138;PMS5003;50435;43.700;-79.318;2022-11-28T12:26:38;0;0;
64138;PMS5003;50435;43.700;-79.318;2022-11-28T12:29:15;1;1;
64138;PMS5003;50435;43.700;-79.318;2022-11-28T12:31:59;1;1;
64138;PMS5003;50435;43.700;-79.318;2022-11-28T12:34:41;0;0;
64138;PMS5003;50435;43.700;-79.318;2022-11-28T12:37:25;0;0;
64138;PMS5003;50435;43.700;-79.318;2022-11-28T12:40:01;1;1;
64138;PMS5003;50435;43.700;-79.318;2022-11-28T12:42:41;1;1;
64138;PMS5003;50435;43.700;-79.318;2022-11-28T12:45:25;1;1;
64138;PMS5003;50435;43.700;-79.318;2022-11-28T12:48:06;2;2;
64138;PMS5003;50435;43.700;-79.318;2022-11-28T12:50:45;2;2;
64138;PMS5003;50435;43.700;-79.318;2022-11-28T12:53:21;4;4;
64138;PMS5003;50435;43.700;-79.318;2022-11-28T12:56:02;1;1;
64138;PMS5003;50435;43.700;-79.318;2022-11-28T12:58:35;1;1;
64138;PMS5003;50435;43.700;-79.318;2022-11-28T13:01:25;2;2;
64138;PMS5003;50435;43.700;-79.318;2022-11-28T13:04:09;3;3;
64138;PMS5003;50435;43.700;-79.318;2022-11-28T13:06:50;2;2;
64138;PMS5003;50435;43.700;-79.318;2022-11-28T13:09:26;5;3;
64138;PMS5003;50435;43.700;-79.318;2022-11-28T13:12:04;3;3;
64138;PMS5003;50435;43.700;-79.318;2022-11-28T13:14:43;3;1;
64138;PMS5003;50435;43.700;-79.318;2022-11-28T13:17:21;5;4;
64138;PMS5003;50435;43.700;-79.318;2022-11-28T13:20:02;3;3;
64138;PMS5003;50435;43.700;-79.318;2022-11-28T13:22:46;3;3;
64138;PMS5003;50435;43.700;-79.318;2022-11-28T13:25:23;5;5;
64138;PMS5003;50435;43.700;-79.318;2022-11-28T13:28:03;4;4;
64138;PMS5003;50435;43.700;-79.318;2022-11-28T13:30:40;4;2;
64138;PMS5003;50435;43.700;-79.318;2022-11-28T13:33:19;4;3;
64138;PMS5003;50435;43.700;-79.318;2022-11-28T13:35:55;3;3;
64138;PMS5003;50435;43.700;-79.318;2022-11-28T13:38:27;5;3;
64138;PMS5003;50435;43.700;-79.318;2022-11-28T13:41:07;4;4;
64138;PMS5003;50435;43.700;-79.318;2022-11-28T13:43:41;5;5;
64138;PMS5003;50435;43.700;-79.318;2022-11-28T13:46:15;1;1;
64138;PMS5003;50435;43.700;-79.318;2022-11-28T13:48:50;2;2;
64138;PMS5003;50435;43.700;-79.318;2022-11-28T13:51:27;3;1;
64138;PMS5003;50435;43.700;-79.318;2022-11-28T13:54:32;2;2;
64138;PMS5003;50435;43.700;-79.318;2022-11-28T13:57:04;3;3;
64138;PMS5003;50435;43.700;-79.318;2022-11-28T13:59:45;3;3;
64138;PMS5003;50435;43.700;-79.318;2022-11-28T14:02:16;2;2;
64138;PMS5003;50435;43.700;-79.318;2022-11-28T14:04:47;3;3;
64138;PMS5003;50435;43.700;-79.318;2022-11-28T14:07:20;2;2;
64138;PMS5003;50435;43.700;-79.318;2022-11-28T14:09:54;2;1;
64138;PMS5003;50435;43.700;-79.318;2022-11-28T14:12:36;2;2;
64138;PMS5003;50435;43.700;-79.318;2022-11-28T14:15:17;1;1;
64138;PMS5003;50435;43.700;-79.318;2022-11-28T14:18:00;2;2;
64138;PMS5003;50435;43.700;-79.318;2022-11-28T14:20:41;2;1;
64138;PMS5003;50435;43.700;-79.318;2022-11-28T14:23:20;0;0;
64138;PMS5003;50435;43.700;-79.318;2022-11-28T14:25:54;2;1;
64138;PMS5003;50435;43.700;-79.318;2022-11-28T14:28:23;1;1;
64138;PMS5003;50435;43.700;-79.318;2022-11-28T14:30:59;1;1;
64138;PMS5003;50435;43.700;-79.318;2022-11-28T14:33:31;1;1;
64138;PMS5003;50435;43.700;-79.318;2022-11-28T14:36:04;1;1;
64138;PMS5003;50435;43.700;-79.318;2022-11-28T14:38:58;0;0;
64138;PMS5003;50435;43.700;-79.318;2022-11-28T14:41:27;2;2;
64138;PMS5003;50435;43.700;-79.318;2022-11-28T14:43:54;1;1;
64138;PMS5003;50435;43.700;-79.318;2022-11-28T14:47:13;1;1;
64138;PMS5003;50435;43.700;-79.318;2022-11-28T14:49:43;1;1;
64138;PMS5003;50435;43.700;-79.318;2022-11-28T14:52:20;1;1;
64138;PMS5003;50435;43.700;-79.318;2022-11-28T14:54:49;1;1;
64138;PMS5003;50435;43.700;-79.318;2022-11-28T14:57:18;1;1;
64138;PMS5003;50435;43.700;-79.318;2022-11-28T14:59:50;3;2;
64138;PMS5003;50435;43.700;-79.318;2022-11-28T15:02:24;1;0;
64138;PMS5003;50435;43.700;-79.318;2022-11-28T15:05:28;3;1;
64138;PMS5003;50435;43.700;-79.318;2022-11-28T15:08:09;0;0;
64138;PMS5003;50435;43.700;-79.318;2022-11-28T15:10:47;1;1;
64138;PMS5003;50435;43.700;-79.318;2022-11-28T15:13:25;0;0;
64138;PMS5003;50435;43.700;-79.318;2022-11-28T15:16:02;1;1;
64138;PMS5003;50435;43.700;-79.318;2022-11-28T15:18:31;1;1;
64138;PMS5003;50435;43.700;-79.318;2022-11-28T15:21:01;0;0;
64138;PMS5003;50435;43.700;-79.318;2022-11-28T15:23:32;1;1;
64138;PMS5003;50435;43.700;-79.318;2022-11-28T15:26:02;1;1;
64138;PMS5003;50435;43.700;-79.318;2022-11-28T15:28:30;0;0;
64138;PMS5003;50435;43.700;-79.318;2022-11-28T15:31:00;0;0;
64138;PMS5003;50435;43.700;-79.318;2022-11-28T15:33:29;0;0;
64138;PMS5003;50435;43.700;-79.318;2022-11-28T15:35:58;0;0;
64138;PMS5003;50435;43.700;-79.318;2022-11-28T15:38:29;0;0;
64138;PMS5003;50435;43.700;-79.318;2022-11-28T15:40:57;1;1;
64138;PMS5003;50435;43.700;-79.318;2022-11-28T15:43:26;0;0;
64138;PMS5003;50435;43.700;-79.318;2022-11-28T15:45:55;1;1;
64138;PMS5003;50435;43.700;-79.318;2022-11-28T15:48:27;1;1;
64138;PMS5003;50435;43.700;-79.318;2022-11-28T15:51:00;1;1;
64138;PMS5003;50435;43.700;-79.318;2022-11-28T15:53:28;1;1;
64138;PMS5003;50435;43.700;-79.318;2022-11-28T15:56:09;2;2;
64138;PMS5003;50435;43.700;-79.318;2022-11-28T15:58:39;1;1;
64138;PMS5003;50435;43.700;-79.318;2022-11-28T16:01:09;1;1;
64138;PMS5003;50435;43.700;-79.318;2022-11-28T16:03:46;1;1;
64138;PMS5003;50435;43.700;-79.318;2022-11-28T16:06:26;1;1;
64138;PMS5003;50435;43.700;-79.318;2022-11-28T16:08:57;0;0;
64138;PMS5003;50435;43.700;-79.318;2022-11-28T16:11:28;0;0;
64138;PMS5003;50435;43.700;-79.318;2022-11-28T16:13:57;1;1;
64138;PMS5003;50435;43.700;-79.318;2022-11-28T16:16:27;2;2;
64138;PMS5003;50435;43.700;-79.318;2022-11-28T16:18:59;0;0;
64138;PMS5003;50435;43.700;-79.318;2022-11-28T16:21:30;1;1;
64138;PMS5003;50435;43.700;-79.318;2022-11-28T16:24:02;1;1;
64138;PMS5003;50435;43.700;-79.318;2022-11-28T16:26:51;1;1;
64138;PMS5003;50435;43.700;-79.318;2022-11-28T16:29:20;2;2;
64138;PMS5003;50435;43.700;-79.318;2022-11-28T16:31:49;1;1;
64138;PMS5003;50435;43.700;-79.318;2022-11-28T16:34:41;1;1;
64138;PMS5003;50435;43.700;-79.318;2022-11-28T16:37:10;3;2;
64138;PMS5003;50435;43.700;-79.318;2022-11-28T16:39:38;3;1;
64138;PMS5003;50435;43.700;-79.318;2022-11-28T16:42:10;2;2;
64138;PMS5003;50435;43.700;-79.318;2022-11-28T16:44:41;1;1;
64138;PMS5003;50435;43.700;-79.318;2022-11-28T16:47:21;2;2;
64138;PMS5003;50435;43.700;-79.318;2022-11-28T16:50:04;1;1;
64138;PMS5003;50435;43.700;-79.318;2022-11-28T16:52:44;2;2;
64138;PMS5003;50435;43.700;-79.318;2022-11-28T16:55:46;3;3;
64138;PMS5003;50435;43.700;-79.318;2022-11-28T16:58:14;2;1;